sensor_id;sensor_type;location;lat;lon;timestamp;P1;durP1;ratioP1;P2;durP2;ratioP2
5827;SDS011;42583;50.240;8.444;2023-06-26T00:07:14;5.47;;;3.72;;
5827;SDS011;42583;50.240;8.444;2023-06-26T00:22:15;8.43;;;3.67;;
5827;SDS011;42583;50.240;8.444;2023-06-26T00:37:16;6.43;;;3.50;;
5827;SDS011;42583;50.240;8.444;2023-06-26T00:52:21;6.07;;;3.95;;
5827;SDS011;42583;50.240;8.444;2023-06-26T01:07:23;6.20;;;4.10;;
5827;SDS011;42583;50.240;8.444;2023-06-26T01:22:29;6.50;;;4.03;;
5827;SDS011;42583;50.240;8.444;2023-06-26T01:37:31;6.85;;;4.13;;
5827;SDS011;42583;50.240;8.444;2023-06-26T01:52:35;6.03;;;3.90;;
5827;SDS011;42583;50.240;8.444;2023-06-26T02:07:49;6.30;;;4.00;;
5827;SDS011;42583;50.240;8.444;2023-06-26T02:22:50;7.10;;;4.10;;
5827;SDS011;42583;50.240;8.444;2023-06-26T02:37:51;5.82;;;3.78;;
5827;SDS011;42583;50.240;8.444;2023-06-26T02:52:52;6.25;;;4.00;;
5827;SDS011;42583;50.240;8.444;2023-06-26T03:07:52;7.10;;;4.20;;
5827;SDS011;42583;50.240;8.444;2023-06-26T03:22:53;5.43;;;4.07;;
5827;SDS011;42583;50.240;8.444;2023-06-26T03:37:53;6.60;;;3.92;;
5827;SDS011;42583;50.240;8.444;2023-06-26T03:52:54;7.70;;;4.10;;
5827;SDS011;42583;50.240;8.444;2023-06-26T04:07:55;9.02;;;4.20;;
5827;SDS011;42583;50.240;8.444;2023-06-26T04:22:55;5.72;;;3.75;;
5827;SDS011;42583;50.240;8.444;2023-06-26T04:37:56;7.60;;;4.00;;
5827;SDS011;42583;50.240;8.444;2023-06-26T04:52:56;5.95;;;3.95;;
5827;SDS011;42583;50.240;8.444;2023-06-26T05:07:57;8.90;;;4.03;;
5827;SDS011;42583;50.240;8.444;2023-06-26T05:22:58;10.70;;;4.30;;
5827;SDS011;42583;50.240;8.444;2023-06-26T05:37:58;6.07;;;3.95;;
5827;SDS011;42583;50.240;8.444;2023-06-26T05:52:59;6.95;;;4.32;;
5827;SDS011;42583;50.240;8.444;2023-06-26T06:08:03;7.95;;;4.53;;
5827;SDS011;42583;50.240;8.444;2023-06-26T06:23:03;8.32;;;4.78;;
5827;SDS011;42583;50.240;8.444;2023-06-26T06:38:04;8.93;;;5.03;;
5827;SDS011;42583;50.240;8.444;2023-06-26T06:53:05;7.63;;;4.50;;
5827;SDS011;42583;50.240;8.444;2023-06-26T07:08:05;7.68;;;4.50;;
5827;SDS011;42583;50.240;8.444;2023-06-26T07:23:06;9.35;;;4.88;;
5827;SDS011;42583;50.240;8.444;2023-06-26T07:38:06;8.05;;;4.80;;
5827;SDS011;42583;50.240;8.444;2023-06-26T07:53:07;10.07;;;4.78;;
5827;SDS011;42583;50.240;8.444;2023-06-26T08:08:08;7.93;;;4.93;;
5827;SDS011;42583;50.240;8.444;2023-06-26T08:23:08;10.77;;;5.07;;
5827;SDS011;42583;50.240;8.444;2023-06-26T08:38:09;9.03;;;5.20;;
5827;SDS011;42583;50.240;8.444;2023-06-26T09:08:16;8.88;;;5.30;;
5827;SDS011;42583;50.240;8.444;2023-06-26T09:23:17;10.77;;;5.55;;
5827;SDS011;42583;50.240;8.444;2023-06-26T09:38:17;7.57;;;5.50;;
5827;SDS011;42583;50.240;8.444;2023-06-26T09:53:18;6.22;;;4.80;;
5827;SDS011;42583;50.240;8.444;2023-06-26T10:08:20;9.18;;;4.63;;
5827;SDS011;42583;50.240;8.444;2023-06-26T10:23:21;7.20;;;4.60;;
5827;SDS011;42583;50.240;8.444;2023-06-26T10:38:24;10.30;;;5.65;;
5827;SDS011;42583;50.240;8.444;2023-06-26T10:53:55;8.57;;;4.10;;
5827;SDS011;42583;50.240;8.444;2023-06-26T11:24:06;8.70;;;4.80;;
5827;SDS011;42583;50.240;8.444;2023-06-26T11:39:08;10.60;;;4.50;;
5827;SDS011;42583;50.240;8.444;2023-06-26T11:54:08;11.45;;;3.85;;
5827;SDS011;42583;50.240;8.444;2023-06-26T12:09:10;10.10;;;4.07;;
5827;SDS011;42583;50.240;8.444;2023-06-26T12:24:18;7.43;;;3.97;;
5827;SDS011;42583;50.240;8.444;2023-06-26T12:39:20;8.50;;;3.95;;
5827;SDS011;42583;50.240;8.444;2023-06-26T12:54:21;8.07;;;3.90;;
5827;SDS011;42583;50.240;8.444;2023-06-26T13:09:22;8.00;;;3.20;;
5827;SDS011;42583;50.240;8.444;2023-06-26T13:24:24;9.52;;;2.65;;
5827;SDS011;42583;50.240;8.444;2023-06-26T13:39:25;6.68;;;2.40;;
5827;SDS011;42583;50.240;8.444;2023-06-26T13:54:25;7.25;;;2.20;;
5827;SDS011;42583;50.240;8.444;2023-06-26T14:09:26;5.50;;;2.20;;
5827;SDS011;42583;50.240;8.444;2023-06-26T14:24:27;7.00;;;1.80;;
5827;SDS011;42583;50.240;8.444;2023-06-26T14:39:27;7.40;;;1.63;;
5827;SDS011;42583;50.240;8.444;2023-06-26T14:54:28;8.05;;;1.75;;
5827;SDS011;42583;50.240;8.444;2023-06-26T15:09:28;7.57;;;1.60;;
5827;SDS011;42583;50.240;8.444;2023-06-26T15:24:29;7.18;;;1.70;;
5827;SDS011;42583;50.240;8.444;2023-06-26T15:39:30;4.37;;;1.63;;
5827;SDS011;42583;50.240;8.444;2023-06-26T15:54:30;5.03;;;1.40;;
5827;SDS011;42583;50.240;8.444;2023-06-26T16:09:31;6.80;;;1.70;;
5827;SDS011;42583;50.240;8.444;2023-06-26T16:24:32;7.15;;;1.60;;
5827;SDS011;42583;50.240;8.444;2023-06-26T16:39:32;6.65;;;1.50;;
5827;SDS011;42583;50.240;8.444;2023-06-26T16:54:34;7.27;;;1.90;;
5827;SDS011;42583;50.240;8.444;2023-06-26T17:09:35;5.65;;;1.50;;
5827;SDS011;42583;50.240;8.444;2023-06-26T17:24:35;6.38;;;1.85;;
5827;SDS011;42583;50.240;8.444;2023-06-26T17:39:36;6.60;;;1.42;;
5827;SDS011;42583;50.240;8.444;2023-06-26T18:09:37;5.20;;;1.50;;
5827;SDS011;42583;50.240;8.444;2023-06-26T19:54:43;4.32;;;1.58;;
5827;SDS011;42583;50.240;8.444;2023-06-26T20:09:43;2.42;;;1.10;;
5827;SDS011;42583;50.240;8.444;2023-06-26T20:24:44;4.60;;;1.20;;
5827;SDS011;42583;50.240;8.444;2023-06-26T20:39:44;3.45;;;1.30;;
5827;SDS011;42583;50.240;8.444;2023-06-26T20:54:46;5.60;;;1.20;;
5827;SDS011;42583;50.240;8.444;2023-06-26T21:09:47;3.38;;;1.52;;
5827;SDS011;42583;50.240;8.444;2023-06-26T21:24:48;4.68;;;1.00;;
5827;SDS011;42583;50.240;8.444;2023-06-26T21:39:50;5.20;;;1.40;;
5827;SDS011;42583;50.240;8.444;2023-06-26T21:54:50;5.80;;;1.20;;
5827;SDS011;42583;50.240;8.444;2023-06-26T22:09:51;2.65;;;1.20;;
5827;SDS011;42583;50.240;8.444;2023-06-26T22:24:52;3.55;;;1.40;;
5827;SDS011;42583;50.240;8.444;2023-06-26T22:39:52;2.63;;;1.10;;
5827;SDS011;42583;50.240;8.444;2023-06-26T22:54:53;7.15;;;1.20;;
5827;SDS011;42583;50.240;8.444;2023-06-26T23:09:53;2.35;;;1.10;;
5827;SDS011;42583;50.240;8.444;2023-06-26T23:24:54;4.57;;;1.10;;
5827;SDS011;42583;50.240;8.444;2023-06-26T23:39:57;3.70;;;1.30;;
5827;SDS011;42583;50.240;8.444;2023-06-26T23:55:10;3.22;;;1.17;;
